Time;durP1;ratioP1;P1;durP2;ratioP2;P2;SDS_P1;SDS_P2;PMS_P1;PMS_P2;Temp;Humidity;BMP_temperature;BMP_pressure;BME280_temperature;BME280_humidity;BME280_pressure;Samples;Min_cycle;Max_cycle;Signal;HPM_P1;HPM_P2
2021/12/10 00:01:58;;;;;;;26.17;16.47;;;;;;;1.34;100.00;99783.03;5011229;28;20030;-58
2021/12/10 00:04:30;;;;;;;22.97;15.87;;;;;;;1.35;100.00;99774.56;5011169;28;20394;-59
2021/12/10 00:06:59;;;;;;;26.27;16.13;;;;;;;1.36;100.00;99765.22;5011353;28;20049;-59
2021/12/10 00:09:29;;;;;;;21.93;15.20;;;;;;;1.37;100.00;99755.09;5011807;28;20506;-59
2021/12/10 00:12:03;;;;;;;19.42;15.10;;;;;;;1.39;100.00;99748.41;5011416;28;20030;-59
2021/12/10 00:14:31;;;;;;;20.77;13.90;;;;;;;1.43;100.00;99745.22;5011075;28;20494;-59
2021/12/10 00:16:59;;;;;;;18.83;13.83;;;;;;;1.45;100.00;99735.06;5010933;28;20030;-59
2021/12/10 00:19:38;;;;;;;26.00;14.10;;;;;;;1.48;100.00;99735.22;5011199;28;20026;-60
2021/12/10 00:22:09;;;;;;;21.63;13.87;;;;;;;1.52;100.00;99733.69;5011044;28;20029;-59
2021/12/10 00:24:36;;;;;;;21.65;12.63;;;;;;;1.53;100.00;99720.16;5011066;28;20042;-59
2021/12/10 00:27:05;;;;;;;16.13;12.40;;;;;;;1.56;100.00;99722.84;5011106;28;20518;-59
2021/12/10 00:29:32;;;;;;;18.83;12.00;;;;;;;1.60;100.00;99718.78;5010614;28;20410;-59
2021/12/10 00:32:05;;;;;;;15.30;11.10;;;;;;;1.59;100.00;99710.22;5011030;28;20030;-59
2021/12/10 00:34:41;;;;;;;11.87;9.67;;;;;;;1.61;100.00;99705.19;5010745;28;20387;-60
2021/12/10 00:37:13;;;;;;;19.03;10.70;;;;;;;1.63;100.00;99686.59;5010954;28;20036;-58
2021/12/10 00:39:43;;;;;;;16.23;9.87;;;;;;;1.64;100.00;99680.69;5010801;28;20061;-59
2021/12/10 00:42:12;;;;;;;14.73;10.27;;;;;;;1.65;100.00;99679.00;5010869;28;20470;-59
2021/12/10 00:44:38;;;;;;;15.67;9.40;;;;;;;1.66;100.00;99678.19;5011166;28;20095;-59
2021/12/10 00:47:04;;;;;;;17.80;9.13;;;;;;;1.66;100.00;99663.75;5010693;28;20033;-59
2021/12/10 00:49:30;;;;;;;16.53;8.53;;;;;;;1.66;100.00;99663.75;5010898;28;20034;-57
2021/12/10 00:51:55;;;;;;;12.77;8.67;;;;;;;1.64;100.00;99647.47;5010217;28;20140;-58
2021/12/10 00:54:20;;;;;;;15.83;8.60;;;;;;;1.63;100.00;99642.31;5010586;28;20030;-59
2021/12/10 00:56:47;;;;;;;12.03;7.37;;;;;;;1.60;100.00;99645.56;5010500;28;20463;-59
2021/12/10 00:59:14;;;;;;;14.40;8.43;;;;;;;1.60;100.00;99643.00;5010561;28;20109;-60
2021/12/10 01:01:41;;;;;;;16.67;7.93;;;;;;;1.58;100.00;99634.44;5010430;28;20025;-59
2021/12/10 01:04:09;;;;;;;16.33;8.20;;;;;;;1.55;100.00;99630.03;5010384;28;20092;-58
2021/12/10 01:06:36;;;;;;;13.23;7.90;;;;;;;1.56;100.00;99618.16;5010599;28;20060;-58
2021/12/10 01:09:07;;;;;;;11.00;7.90;;;;;;;1.54;100.00;99612.06;5010615;28;20101;-60
2021/12/10 01:11:38;;;;;;;;;;;;;;;1.52;100.00;99598.34;5009578;28;20359;-59
2021/12/10 01:14:16;;;;;;;13.83;7.87;;;;;;;1.49;100.00;99598.22;5010385;28;20500;-57
2021/12/10 01:27:33;;;;;;;14.03;8.03;;;;;;;1.28;100.00;99552.94;5010689;28;20125;-59
2021/12/10 01:30:23;;;;;;;11.30;8.20;;;;;;;1.26;100.00;99549.47;5010465;28;20558;-58
2021/12/10 01:32:54;;;;;;;15.00;8.10;;;;;;;1.23;100.00;99544.19;5009988;28;20046;-59
2021/12/10 01:35:23;;;;;;;13.93;8.07;;;;;;;1.21;100.00;99540.72;5010293;28;20042;-58
2021/12/10 01:37:51;;;;;;;19.90;8.47;;;;;;;1.21;100.00;99533.06;5010019;28;20040;-59
2021/12/10 01:40:20;;;;;;;16.53;9.20;;;;;;;1.17;100.00;99526.91;5009924;28;20041;-59
2021/12/10 01:42:49;;;;;;;16.27;8.67;;;;;;;1.16;100.00;99520.94;5010118;28;20024;-59
2021/12/10 01:45:26;;;;;;;17.13;8.03;;;;;;;1.14;100.00;99519.09;5009853;28;20041;-60
2021/12/10 01:48:05;;;;;;;13.67;7.77;;;;;;;1.12;100.00;99516.47;5009831;28;20030;-59
2021/12/10 01:50:32;;;;;;;16.33;7.80;;;;;;;1.11;100.00;99514.72;5009725;28;20434;-59
2021/12/10 01:53:00;;;;;;;15.90;7.80;;;;;;;1.10;100.00;99507.84;5010019;28;20036;-59
2021/12/10 01:55:29;;;;;;;18.47;7.53;;;;;;;1.08;100.00;99509.44;5009792;28;20025;-59
2021/12/10 01:57:57;;;;;;;13.97;7.53;;;;;;;1.07;100.00;99502.59;5009478;28;20076;-58
2021/12/10 02:00:25;;;;;;;11.90;6.73;;;;;;;1.10;100.00;99500.19;5009110;28;20327;-57
2021/12/10 02:02:51;;;;;;;10.53;6.60;;;;;;;1.08;100.00;99499.25;5009651;28;20241;-59
2021/12/10 02:05:18;;;;;;;12.13;6.60;;;;;;;1.07;100.00;99502.59;5009784;28;20095;-59
2021/12/10 02:07:44;;;;;;;13.17;6.00;;;;;;;1.05;100.00;99494.00;5009724;28;20034;-59
2021/12/10 02:10:11;;;;;;;15.03;6.43;;;;;;;1.04;100.00;99489.72;5009664;28;20084;-58
2021/12/10 02:12:37;;;;;;;13.67;5.77;;;;;;;1.04;100.00;99487.16;5009398;28;20030;-58
2021/12/10 02:15:04;;;;;;;12.63;6.10;;;;;;;1.04;100.00;99482.91;5009699;28;20390;-58
2021/12/10 02:17:35;;;;;;;11.40;5.50;;;;;;;1.03;100.00;99470.06;5009560;28;20054;-58
2021/12/10 02:20:11;;;;;;;12.30;6.00;;;;;;;1.01;100.00;99462.34;5009369;28;20030;-59
2021/12/10 02:22:37;;;;;;;9.83;5.47;;;;;;;1.03;100.00;99454.75;5009443;28;20474;-58
2021/12/10 02:25:05;;;;;;;8.70;5.17;;;;;;;1.02;100.00;99448.81;5009424;28;20022;-58
2021/12/10 02:27:32;;;;;;;9.73;5.43;;;;;;;1.03;100.00;99445.44;5009285;28;20037;-58
2021/12/10 02:29:57;;;;;;;12.93;5.70;;;;;;;1.03;100.00;99437.78;5012236;28;20502;-58
2021/12/10 02:32:25;;;;;;;10.67;6.00;;;;;;;1.00;100.00;99435.09;5009606;28;20140;-58
2021/12/10 02:34:52;;;;;;;8.57;5.50;;;;;;;1.00;100.00;99426.56;4993363;28;20295;-59
2021/12/10 02:37:18;;;;;;;8.00;4.43;;;;;;;1.00;100.00;99416.34;4993237;28;20293;-59
2021/12/10 02:39:44;;;;;;;6.37;4.90;;;;;;;1.01;100.00;99415.56;4993349;28;20019;-60
2021/12/10 02:42:09;;;;;;;8.67;4.50;;;;;;;0.99;100.00;99404.41;4993299;28;20033;-58
2021/12/10 02:44:34;;;;;;;7.37;4.07;;;;;;;1.03;100.00;99406.28;4993181;28;20065;-58
2021/12/10 02:47:01;;;;;;;11.53;4.07;;;;;;;1.04;100.00;99400.41;4993073;28;20479;-59
2021/12/10 02:49:27;;;;;;;6.67;3.87;;;;;;;1.04;100.00;99391.03;4994219;28;20034;-59
2021/12/10 02:51:54;;;;;;;10.90;4.37;;;;;;;1.05;100.00;99381.72;5011453;28;20113;-58
2021/12/10 02:54:31;;;;;;;12.70;4.80;;;;;;;1.06;100.00;99384.34;5011374;28;20149;-58
2021/12/10 02:56:56;;;;;;;8.90;4.37;;;;;;;1.07;100.00;99386.09;5012650;28;20106;-59
2021/12/10 02:59:22;;;;;;;8.33;3.43;;;;;;;1.11;100.00;99376.91;5012747;28;20479;-59
2021/12/10 03:01:50;;;;;;;9.50;3.93;;;;;;;1.12;100.00;99373.56;5012889;28;20026;-59
2021/12/10 03:04:15;;;;;;;8.80;3.93;;;;;;;1.13;100.00;99375.31;5012867;28;20018;-59
2021/12/10 03:06:50;;;;;;;9.33;3.83;;;;;;;1.14;100.00;99368.50;5012336;28;20030;-59
2021/12/10 03:09:18;;;;;;;8.83;3.90;;;;;;;1.13;100.00;99360.00;5012347;28;20145;-59
2021/12/10 03:11:46;;;;;;;10.20;3.73;;;;;;;1.15;100.00;99358.38;5012414;28;20108;-58
2021/12/10 03:14:13;;;;;;;8.57;3.63;;;;;;;1.16;100.00;99361.81;5012409;28;20025;-57
2021/12/10 03:16:41;;;;;;;6.93;3.20;;;;;;;1.14;100.00;99350.66;5012211;28;20029;-59
2021/12/10 03:19:06;;;;;;;6.20;3.40;;;;;;;1.13;100.00;99349.81;5011948;28;20408;-59
2021/12/10 03:21:35;;;;;;;8.80;3.10;;;;;;;1.12;100.00;99348.03;5012111;28;20062;-59
2021/12/10 03:24:00;;;;;;;9.90;3.97;;;;;;;1.12;100.00;99336.94;5011978;28;20029;-59
2021/12/10 03:26:26;;;;;;;11.17;3.67;;;;;;;1.13;100.00;99333.59;5012146;28;20030;-58
2021/12/10 03:28:53;;;;;;;9.37;3.90;;;;;;;1.15;100.00;99337.09;5011964;28;20036;-59
2021/12/10 03:31:20;;;;;;;8.43;3.00;;;;;;;1.14;100.00;99328.56;5011689;28;20050;-57
2021/12/10 03:33:47;;;;;;;7.30;3.10;;;;;;;1.14;100.00;99326.00;5012025;28;20030;-59
2021/12/10 03:36:14;;;;;;;5.53;3.43;;;;;;;1.13;100.00;99326.84;5011716;28;20032;-58
2021/12/10 03:38:41;;;;;;;7.87;3.00;;;;;;;1.13;100.00;99318.28;5011702;28;20406;-58
2021/12/10 03:41:09;;;;;;;8.63;3.27;;;;;;;1.13;100.00;99315.75;5011088;28;20038;-58
2021/12/10 03:43:35;;;;;;;8.57;3.27;;;;;;;1.14;100.00;99307.28;5007964;28;20137;-59
2021/12/10 03:46:01;;;;;;;6.30;3.00;;;;;;;1.16;100.00;99304.00;4992057;28;20029;-59
2021/12/10 03:48:31;;;;;;;7.60;3.13;;;;;;;1.16;100.00;99298.91;4990804;28;20033;-59
2021/12/10 03:51:00;;;;;;;6.40;3.00;;;;;;;1.18;100.00;99298.97;4991854;28;20030;-59
2021/12/10 03:53:26;;;;;;;9.13;3.60;;;;;;;1.18;100.00;99297.28;4991847;28;20027;-59
2021/12/10 03:55:58;;;;;;;8.10;2.83;;;;;;;1.17;100.00;99287.88;4991888;28;20072;-59
2021/12/10 03:58:23;;;;;;;6.77;2.90;;;;;;;1.21;100.00;99288.03;4991797;28;20030;-57
2021/12/10 04:00:52;;;;;;;11.00;3.20;;;;;;;1.21;100.00;99282.94;4991760;28;20018;-58
2021/12/10 04:03:21;;;;;;;10.47;3.37;;;;;;;1.22;100.00;99283.00;4991707;28;20030;-59
2021/12/10 04:05:47;;;;;;;7.43;3.00;;;;;;;1.22;100.00;99271.91;4992092;28;20386;-59
2021/12/10 04:08:13;;;;;;;7.97;2.80;;;;;;;1.22;100.00;99262.56;4991623;28;20410;-60
2021/12/10 04:10:38;;;;;;;5.80;2.33;;;;;;;1.26;100.00;99261.88;4991885;28;20036;-58
2021/12/10 04:13:04;;;;;;;4.50;2.40;;;;;;;1.29;100.00;99271.38;4991627;28;20307;-58
2021/12/10 04:15:30;;;;;;;10.23;2.97;;;;;;;1.30;100.00;99260.34;4991432;28;20033;-59
2021/12/10 04:17:56;;;;;;;8.53;3.23;;;;;;;1.33;100.00;99245.19;4991376;28;20097;-58
2021/12/10 04:20:25;;;;;;;7.03;2.20;;;;;;;1.35;100.00;99243.53;4991318;28;20030;-59
2021/12/10 04:22:51;;;;;;;6.90;2.50;;;;;;;1.35;100.00;99240.97;4991534;28;20105;-59
2021/12/10 04:25:20;;;;;;;4.93;2.10;;;;;;;1.36;100.00;99242.75;4990225;28;20107;-59
2021/12/10 04:27:48;;;;;;;9.47;2.40;;;;;;;1.37;100.00;99235.97;4991721;28;20045;-58
2021/12/10 04:30:14;;;;;;;8.47;2.27;;;;;;;1.37;100.00;99236.81;4991380;28;20050;-59
2021/12/10 04:32:41;;;;;;;6.97;2.13;;;;;;;1.38;100.00;99223.28;4991234;28;20117;-58
2021/12/10 04:35:08;;;;;;;4.57;2.37;;;;;;;1.38;100.00;99207.97;4991122;28;20113;-59
2021/12/10 04:37:34;;;;;;;6.97;2.10;;;;;;;1.40;100.00;99215.69;4990999;28;20105;-57
2021/12/10 04:40:03;;;;;;;5.77;2.30;;;;;;;1.38;100.00;99210.50;4991105;28;20463;-59
2021/12/10 04:42:28;;;;;;;6.93;2.30;;;;;;;1.38;100.00;99202.84;4991079;28;20101;-58
2021/12/10 04:44:57;;;;;;;4.93;2.63;;;;;;;1.40;100.00;99196.09;4989604;28;20485;-59
2021/12/10 04:47:23;;;;;;;9.67;3.07;;;;;;;1.43;100.00;99191.16;4990829;28;20037;-58
2021/12/10 04:49:49;;;;;;;6.50;2.70;;;;;;;1.44;100.00;99180.13;4990774;28;20109;-59
2021/12/10 04:52:15;;;;;;;6.50;2.73;;;;;;;1.47;100.00;99168.28;4991153;28;20061;-59
2021/12/10 04:54:40;;;;;;;6.80;2.77;;;;;;;1.49;100.00;99166.69;4990696;28;20098;-59
2021/12/10 04:57:06;;;;;;;5.90;2.93;;;;;;;1.50;100.00;99158.19;4990989;28;20026;-58
2021/12/10 04:59:34;;;;;;;9.27;2.50;;;;;;;1.52;100.00;99157.47;4990710;28;20037;-59
2021/12/10 05:02:04;;;;;;;7.20;2.57;;;;;;;1.55;100.00;99146.50;4990862;28;20030;-58
2021/12/10 05:04:31;;;;;;;6.60;2.77;;;;;;;1.56;100.00;99144.00;4990426;28;20049;-59
2021/12/10 05:06:56;;;;;;;12.30;3.73;;;;;;;1.56;100.00;99145.69;4990738;28;20382;-66
2021/12/10 05:09:22;;;;;;;7.07;3.40;;;;;;;1.55;100.00;99144.81;4990918;28;20261;-58
2021/12/10 05:11:49;;;;;;;6.87;3.00;;;;;;;1.54;100.00;99132.00;4990553;28;20030;-58
2021/12/10 05:14:16;;;;;;;7.33;3.30;;;;;;;1.56;100.00;99128.69;4990661;28;20030;-59
2021/12/10 05:16:44;;;;;;;8.73;4.43;;;;;;;1.56;100.00;99130.38;4990446;28;20034;-59
2021/12/10 05:19:12;;;;;;;6.63;3.13;;;;;;;1.56;100.00;99121.00;4990363;28;20029;-59
2021/12/10 05:21:39;;;;;;;7.03;3.00;;;;;;;1.55;100.00;99121.84;4990381;28;20030;-59
2021/12/10 05:24:06;;;;;;;7.23;3.40;;;;;;;1.54;100.00;99124.34;4990442;28;20510;-59
2021/12/10 05:26:33;;;;;;;7.47;3.10;;;;;;;1.55;100.00;99118.41;4990237;28;20406;-58
2021/12/10 05:28:59;;;;;;;5.70;3.10;;;;;;;1.52;100.00;99123.41;4990393;28;20293;-59
2021/12/10 05:31:26;;;;;;;7.33;2.70;;;;;;;1.49;100.00;99116.50;4990146;28;20410;-59
2021/12/10 05:33:51;;;;;;;6.93;2.83;;;;;;;1.48;100.00;99109.63;4990011;28;20027;-59
2021/12/10 05:36:19;;;;;;;7.07;2.90;;;;;;;1.48;100.00;99113.84;4990185;28;20477;-59
2021/12/10 05:38:44;;;;;;;6.13;2.50;;;;;;;1.48;100.00;99106.19;4990243;28;20056;-59
2021/12/10 05:41:10;;;;;;;9.73;2.63;;;;;;;1.49;100.00;99102.84;4990418;28;20026;-59
2021/12/10 05:43:38;;;;;;;7.13;3.23;;;;;;;1.50;100.00;99099.47;4990087;28;20378;-59
2021/12/10 05:46:04;;;;;;;6.40;2.10;;;;;;;1.51;100.00;99096.13;4990421;28;20080;-59
2021/12/10 05:48:30;;;;;;;9.30;2.40;;;;;;;1.52;100.00;99088.53;4989963;28;20106;-57
2021/12/10 05:50:55;;;;;;;6.10;2.40;;;;;;;1.55;100.00;99087.75;4990388;28;20105;-58
2021/12/10 05:53:21;;;;;;;4.87;1.87;;;;;;;1.58;100.00;99097.25;4990072;28;20134;-59
2021/12/10 05:55:47;;;;;;;6.93;2.33;;;;;;;1.59;100.00;99094.75;4990348;28;20046;-59
2021/12/10 05:58:13;;;;;;;5.13;1.90;;;;;;;1.61;100.00;99085.47;4989997;28;20061;-59
2021/12/10 06:00:51;;;;;;;4.67;1.87;;;;;;;1.61;100.00;99087.16;4990396;28;20318;-58
2021/12/10 06:03:17;;;;;;;9.83;2.07;;;;;;;1.62;100.00;99084.66;4990361;28;20076;-58
2021/12/10 06:05:44;;;;;;;5.57;1.80;;;;;;;1.64;100.00;99089.81;4993857;28;20025;-58
2021/12/10 06:08:10;;;;;;;7.20;2.50;;;;;;;1.66;100.00;99090.75;4993948;28;20022;-58
2021/12/10 06:10:36;;;;;;;9.20;1.90;;;;;;;1.67;100.00;99083.16;4994197;28;20474;-59
2021/12/10 06:13:03;;;;;;;7.23;2.77;;;;;;;1.69;100.00;99075.56;4993857;28;20450;-59
2021/12/10 06:15:28;;;;;;;4.03;1.50;;;;;;;1.68;100.00;99074.69;4993726;28;20026;-58
2021/12/10 06:17:54;;;;;;;7.77;1.63;;;;;;;1.67;100.00;99075.47;4993381;28;20383;-58
2021/12/10 06:20:24;;;;;;;5.63;2.00;;;;;;;1.68;100.00;99078.91;4993915;28;20033;-59
2021/12/10 06:22:51;;;;;;;7.17;2.13;;;;;;;1.68;100.00;99077.25;4993717;28;20382;-59
2021/12/10 06:25:17;;;;;;;4.90;1.33;;;;;;;1.68;100.00;99071.25;4993763;28;20487;-59
2021/12/10 06:27:44;;;;;;;7.43;1.57;;;;;;;1.67;100.00;99062.72;4993553;28;20361;-59
2021/12/10 06:30:17;;;;;;;7.07;1.57;;;;;;;1.66;100.00;99071.19;4993404;28;20223;-58
2021/12/10 06:32:45;;;;;;;4.90;1.73;;;;;;;1.66;100.00;99066.09;4993228;28;20065;-58
2021/12/10 06:35:13;;;;;;;7.70;1.60;;;;;;;1.67;100.00;99065.28;4993377;28;20482;-59
2021/12/10 06:37:40;;;;;;;6.80;1.67;;;;;;;1.68;100.00;99074.69;4993460;28;20062;-59
2021/12/10 06:40:09;;;;;;;7.23;2.20;;;;;;;1.66;100.00;99068.66;4993284;28;20040;-59
2021/12/10 06:42:34;;;;;;;7.17;1.67;;;;;;;1.67;100.00;99062.72;4993251;28;20061;-59
2021/12/10 06:45:01;;;;;;;9.13;1.90;;;;;;;1.68;100.00;99061.91;4993311;28;20046;-58
2021/12/10 06:47:27;;;;;;;8.37;1.80;;;;;;;1.70;100.00;99058.53;4993042;28;20026;-59
2021/12/10 06:49:52;;;;;;;4.53;1.40;;;;;;;1.71;100.00;99065.41;4993346;28;20036;-59
2021/12/10 06:52:17;;;;;;;5.27;1.47;;;;;;;1.71;100.00;99057.75;4993058;28;20098;-59
2021/12/10 06:54:43;;;;;;;4.47;1.53;;;;;;;1.72;100.00;99064.59;4993105;28;20027;-59
2021/12/10 06:57:09;;;;;;;6.47;1.63;;;;;;;1.75;100.00;99069.81;4993162;28;20057;-59
2021/12/10 06:59:35;;;;;;;7.37;1.80;;;;;;;1.74;100.00;99073.19;4993359;28;20444;-59
2021/12/10 07:02:00;;;;;;;8.67;1.70;;;;;;;1.75;100.00;99064.69;4993040;28;20101;-59
2021/12/10 07:04:26;;;;;;;6.83;1.77;;;;;;;1.76;100.00;99074.13;4992679;28;20059;-59
2021/12/10 07:06:53;;;;;;;6.30;1.43;;;;;;;1.75;100.00;99069.81;4992715;28;20069;-59
2021/12/10 07:09:22;;;;;;;6.33;1.97;;;;;;;1.77;100.00;99078.41;4992786;28;20049;-58
2021/12/10 07:11:49;;;;;;;7.07;1.63;;;;;;;1.78;100.00;99077.63;4993107;28;20022;-58
2021/12/10 07:14:16;;;;;;;7.63;1.70;;;;;;;1.79;100.00;99067.44;4992846;28;20077;-58
2021/12/10 07:16:42;;;;;;;6.77;1.53;;;;;;;1.80;100.00;99069.19;4991458;28;20031;-59
2021/12/10 07:19:08;;;;;;;7.17;1.40;;;;;;;1.81;100.00;99070.06;4992319;28;20113;-58
2021/12/10 07:21:35;;;;;;;9.60;1.67;;;;;;;1.80;100.00;99068.31;4992438;28;20109;-58
2021/12/10 07:24:05;;;;;;;7.47;1.50;;;;;;;1.80;100.00;99073.41;5000449;28;20475;-59
2021/12/10 07:26:31;;;;;;;8.73;1.70;;;;;;;1.80;100.00;99068.31;5011257;28;20029;-59
2021/12/10 07:28:57;;;;;;;4.90;1.40;;;;;;;1.80;100.00;99068.31;5011532;28;20327;-58
2021/12/10 07:31:23;;;;;;;4.23;1.20;;;;;;;1.81;100.00;99070.06;5011007;28;20050;-59
2021/12/10 07:33:49;;;;;;;7.53;1.60;;;;;;;1.80;100.00;99065.75;5010807;28;20109;-58
2021/12/10 07:36:15;;;;;;;5.23;1.60;;;;;;;1.82;100.00;99061.56;5011156;28;20030;-59
2021/12/10 07:38:41;;;;;;;5.20;1.70;;;;;;;1.80;100.00;99061.53;5011083;28;20164;-59
2021/12/10 07:41:07;;;;;;;4.97;1.67;;;;;;;1.82;100.00;99065.84;5011046;28;20226;-59
2021/12/10 07:43:33;;;;;;;7.70;1.37;;;;;;;1.80;100.00;99063.19;5011385;28;20470;-58
2021/12/10 07:45:59;;;;;;;4.50;1.50;;;;;;;1.82;100.00;99068.38;5011199;28;20056;-58
2021/12/10 07:48:26;;;;;;;6.37;1.73;;;;;;;1.82;100.00;99056.47;5010571;28;20764;-59
2021/12/10 07:51:09;;;;;;;5.53;1.90;;;;;;;1.84;100.00;99059.06;5010872;28;20025;-58
2021/12/10 07:53:36;;;;;;;4.70;1.73;;;;;;;1.86;100.00;99065.13;5010417;28;20096;-58
2021/12/10 07:56:05;;;;;;;7.60;1.73;;;;;;;1.86;100.00;99063.44;5010218;28;20026;-58
2021/12/10 07:58:32;;;;;;;6.17;1.60;;;;;;;1.89;100.00;99061.00;5009799;28;20018;-58
2021/12/10 08:00:59;;;;;;;12.93;2.60;;;;;;;1.91;100.00;99064.50;5010457;28;20065;-57
2021/12/10 08:03:25;;;;;;;10.47;2.10;;;;;;;1.91;100.00;99067.03;5010737;28;20050;-57
2021/12/10 08:05:52;;;;;;;7.67;2.33;;;;;;;1.92;100.00;99080.72;5010407;28;20057;-57
2021/12/10 08:08:17;;;;;;;6.57;2.07;;;;;;;1.94;100.00;99078.19;5010331;28;20030;-58
2021/12/10 08:10:47;;;;;;;7.70;1.87;;;;;;;1.95;100.00;99069.72;5010660;28;20453;-58
2021/12/10 08:13:15;;;;;;;8.03;2.57;;;;;;;1.98;100.00;99082.63;5001313;28;20022;-58
2021/12/10 08:15:40;;;;;;;6.27;1.87;;;;;;;2.01;100.00;99072.53;5008856;28;20116;-58
2021/12/10 08:18:07;;;;;;;6.77;1.50;;;;;;;2.02;100.00;99074.25;5009614;28;20109;-57
2021/12/10 08:20:34;;;;;;;7.30;2.00;;;;;;;2.03;100.00;99076.00;5008660;28;20468;-59
2021/12/10 08:22:59;;;;;;;7.43;1.67;;;;;;;2.06;100.00;99071.00;5009080;28;20018;-58
2021/12/10 08:25:26;;;;;;;7.93;1.80;;;;;;;2.06;100.00;99070.13;5007607;28;20433;-57
2021/12/10 08:27:53;;;;;;;7.07;1.90;;;;;;;2.05;99.96;99066.72;5008275;28;20302;-59
2021/12/10 08:30:21;;;;;;;8.27;1.77;;;;;;;2.08;100.00;99084.72;5008304;28;20022;-59
2021/12/10 08:32:46;;;;;;;5.13;1.47;;;;;;;2.06;100.00;99083.78;5008701;28;20026;-58
2021/12/10 08:35:17;;;;;;;7.90;1.77;;;;;;;2.07;100.00;99077.00;5009053;28;20437;-58
2021/12/10 08:37:43;;;;;;;7.40;1.73;;;;;;;2.09;100.00;99080.47;5009166;28;20083;-59
2021/12/10 08:40:19;;;;;;;7.40;2.10;;;;;;;2.09;100.00;99067.69;5022455;28;20033;-58
2021/12/10 08:42:44;;;;;;;6.57;1.60;;;;;;;2.11;99.54;99074.59;5028725;28;20029;-59
2021/12/10 08:45:10;;;;;;;8.33;1.90;;;;;;;2.13;99.28;99077.22;5028858;28;20070;-56
2021/12/10 08:47:36;;;;;;;6.10;1.97;;;;;;;2.15;99.91;99076.47;5028894;28;20060;-58
2021/12/10 08:50:04;;;;;;;10.07;2.30;;;;;;;2.17;100.00;99073.97;5028673;28;20537;-57
2021/12/10 08:52:30;;;;;;;6.20;1.80;;;;;;;2.17;100.00;99084.19;5009069;28;20217;-59
2021/12/10 08:54:55;;;;;;;6.57;1.83;;;;;;;2.18;100.00;99079.97;5007060;28;20029;-58
2021/12/10 08:57:22;;;;;;;6.83;2.00;;;;;;;2.20;100.00;99078.31;4995000;28;20022;-59
2021/12/10 08:59:47;;;;;;;6.83;2.10;;;;;;;2.20;100.00;99070.63;5008071;28;20501;-60
2021/12/10 09:02:15;;;;;;;9.20;2.50;;;;;;;2.20;99.49;99073.19;5003845;28;20038;-59
2021/12/10 09:04:41;;;;;;;6.87;2.30;;;;;;;2.20;100.00;99073.19;5007203;28;20157;-59
2021/12/10 09:07:10;;;;;;;6.33;2.33;;;;;;;2.20;100.00;99071.53;4997069;28;20030;-59
2021/12/10 09:09:40;;;;;;;9.40;3.83;;;;;;;2.24;100.00;99080.19;4988902;28;20038;-59
2021/12/10 09:12:10;;;;;;;9.83;3.10;;;;;;;2.27;99.61;99082.84;5000086;28;20216;-59
2021/12/10 09:14:41;;;;;;;7.07;3.00;;;;;;;2.28;99.73;99080.34;5007882;28;20466;-57
2021/12/10 09:17:09;;;;;;;10.63;2.97;;;;;;;2.31;99.58;99086.38;4988769;28;20489;-57
2021/12/10 09:19:36;;;;;;;7.13;3.03;;;;;;;2.33;99.70;99090.75;5004475;28;20029;-59
2021/12/10 09:22:04;;;;;;;7.23;3.17;;;;;;;2.36;100.00;99095.97;5008227;28;20076;-60
2021/12/10 09:24:30;;;;;;;9.47;3.93;;;;;;;2.37;99.31;99095.19;5007454;28;20382;-60
2021/12/10 09:26:57;;;;;;;10.50;2.97;;;;;;;2.39;99.85;99085.84;5007794;28;20034;-59
2021/12/10 09:29:25;;;;;;;12.27;3.80;;;;;;;2.40;100.00;99091.84;4999661;28;20119;-59
2021/12/10 09:31:53;;;;;;;6.30;3.37;;;;;;;2.42;99.74;99089.34;5001648;28;20042;-59
2021/12/10 09:34:18;;;;;;;7.13;3.20;;;;;;;2.39;99.47;99085.84;4995619;28;20023;-57
2021/12/10 09:36:45;;;;;;;7.67;3.30;;;;;;;2.38;99.09;99096.91;5008905;28;20021;-59
2021/12/10 09:39:13;;;;;;;6.77;3.40;;;;;;;2.42;98.72;99097.91;4996194;28;20110;-58
2021/12/10 09:41:39;;;;;;;10.50;3.93;;;;;;;2.47;98.92;99103.16;5005580;28;20040;-58
2021/12/10 09:44:07;;;;;;;8.60;3.40;;;;;;;2.45;99.69;99099.69;5009005;28;20022;-59
2021/12/10 09:46:33;;;;;;;5.80;3.20;;;;;;;2.46;98.84;99097.19;4998444;28;20058;-59
2021/12/10 09:48:58;;;;;;;8.30;3.37;;;;;;;2.48;98.47;99098.09;5004682;28;20135;-58
2021/12/10 09:51:32;;;;;;;8.37;3.10;;;;;;;2.53;98.66;99103.41;5000421;28;20107;-58
2021/12/10 09:54:01;;;;;;;6.37;3.20;;;;;;;2.54;98.58;99099.19;4999787;28;20537;-59
2021/12/10 09:56:27;;;;;;;6.13;3.17;;;;;;;2.55;98.90;99096.66;4999690;28;20026;-59
2021/12/10 09:58:54;;;;;;;7.53;2.90;;;;;;;2.59;98.34;99093.38;5008745;28;20033;-58
2021/12/10 10:01:30;;;;;;;8.50;3.10;;;;;;;2.60;98.01;99095.16;5008075;28;20036;-60
2021/12/10 10:04:01;;;;;;;7.93;3.10;;;;;;;2.64;97.90;99096.97;5008674;28;20022;-59
2021/12/10 10:06:39;;;;;;;6.78;2.47;;;;;;;2.64;96.69;99102.09;5008333;28;20022;-59
2021/12/10 10:09:06;;;;;;;4.73;2.70;;;;;;;2.68;97.99;99102.22;5008760;28;20034;-58
2021/12/10 10:11:34;;;;;;;9.77;2.63;;;;;;;2.68;97.02;99097.13;5004296;28;20037;-59
2021/12/10 10:14:00;;;;;;;6.40;2.57;;;;;;;2.70;96.70;99100.59;5007853;28;20042;-59
2021/12/10 10:16:28;;;;;;;7.23;2.60;;;;;;;2.70;95.61;99095.47;4998667;28;20347;-58
2021/12/10 10:18:54;;;;;;;6.47;2.20;;;;;;;2.73;96.23;99100.69;5009382;28;20557;-58
2021/12/10 10:21:29;;;;;;;3.83;2.30;;;;;;;2.73;95.99;99099.03;5008914;28;20113;-59
2021/12/10 10:23:55;;;;;;;6.77;2.33;;;;;;;2.76;96.14;99093.13;5009283;28;20060;-59
2021/12/10 10:26:31;;;;;;;6.67;2.30;;;;;;;2.75;96.01;99102.47;5009442;28;20104;-58
2021/12/10 10:29:00;;;;;;;6.93;2.77;;;;;;;2.78;96.11;99096.63;5009553;28;20034;-59
2021/12/10 10:31:25;;;;;;;7.33;2.63;;;;;;;2.76;96.04;99105.91;5009191;28;20482;-59
2021/12/10 10:33:56;;;;;;;7.30;3.43;;;;;;;2.80;96.27;99101.78;5008091;28;20026;-59
2021/12/10 10:36:24;;;;;;;8.50;3.30;;;;;;;2.79;95.45;99108.59;5008637;28;20032;-59
2021/12/10 10:38:55;;;;;;;6.57;2.63;;;;;;;2.79;94.22;99107.72;5009399;28;20037;-59
2021/12/10 10:41:24;;;;;;;10.43;2.88;;;;;;;2.77;94.39;99102.53;5008929;28;20509;-57
2021/12/10 10:43:50;;;;;;;6.63;2.40;;;;;;;2.77;93.60;99102.53;5009013;28;20018;-58
2021/12/10 10:46:15;;;;;;;5.47;2.40;;;;;;;2.78;94.43;99099.19;5005150;28;20063;-59
2021/12/10 10:48:43;;;;;;;8.60;3.17;;;;;;;2.82;96.20;99095.91;5007634;28;20029;-59
2021/12/10 10:51:12;;;;;;;6.53;2.73;;;;;;;2.81;95.56;99104.41;5004668;28;20466;-59
2021/12/10 10:53:45;;;;;;;6.13;2.80;;;;;;;2.83;94.79;99105.31;4998141;28;20109;-58
2021/12/10 10:56:20;;;;;;;8.23;2.50;;;;;;;2.84;94.57;99103.66;4997547;28;20029;-57
2021/12/10 10:58:54;;;;;;;6.80;2.90;;;;;;;2.85;94.54;99106.25;5010147;28;20474;-58
2021/12/10 11:01:29;;;;;;;6.87;2.23;;;;;;;2.86;95.47;99107.13;4992844;28;20036;-58
2021/12/10 11:04:12;;;;;;;7.40;2.40;;;;;;;2.85;94.83;99106.25;4992849;28;20113;-59
2021/12/10 11:06:43;;;;;;;6.50;2.47;;;;;;;2.87;95.03;99112.31;4992696;28;20022;-58
2021/12/10 11:09:08;;;;;;;5.75;2.45;;;;;;;2.88;94.62;99111.47;4999128;28;20025;-58
2021/12/10 11:11:40;;;;;;;5.23;2.37;;;;;;;2.92;94.89;99103.91;5012684;28;20196;-58
2021/12/10 11:14:11;;;;;;;4.23;1.97;;;;;;;2.93;94.83;99114.19;5011498;28;20025;-57
2021/12/10 11:16:38;;;;;;;10.57;2.83;;;;;;;2.97;95.90;99117.72;5012268;28;20394;-58
2021/12/10 11:19:15;;;;;;;8.93;2.40;;;;;;;2.94;95.05;99118.50;5012370;28;20437;-58
2021/12/10 11:21:48;;;;;;;9.37;2.23;;;;;;;2.97;95.01;99115.16;5012254;28;20030;-57
2021/12/10 11:24:25;;;;;;;9.43;3.13;;;;;;;2.97;93.42;99116.03;5012083;28;20022;-57
2021/12/10 11:26:51;;;;;;;8.60;2.00;;;;;;;2.99;92.85;99118.66;5012236;28;20022;-58
2021/12/10 11:29:42;;;;;;;7.53;2.27;;;;;;;2.98;94.43;99120.38;5011988;28;20022;-58
2021/12/10 11:32:19;;;;;;;5.63;2.20;;;;;;;2.99;93.99;99113.53;4969811;28;20130;-58
2021/12/10 11:34:52;;;;;;;7.90;2.40;;;;;;;3.02;94.54;99123.91;4969640;28;20139;-56
2021/12/10 11:37:49;;;;;;;6.27;2.10;;;;;;;3.01;93.30;99114.47;4969605;28;20039;-56
2021/12/10 11:40:33;;;;;;;6.77;2.13;;;;;;;3.01;94.04;99127.25;4970150;28;20082;-57
2021/12/10 11:43:06;;;;;;;4.47;1.83;;;;;;;3.05;94.93;99129.13;4969896;28;20082;-56
2021/12/10 11:45:35;;;;;;;8.37;2.73;;;;;;;3.04;93.91;99137.59;4969962;28;20038;-57
2021/12/10 11:48:09;;;;;;;5.73;1.83;;;;;;;3.05;95.22;99136.81;4953812;28;20041;-58
2021/12/10 11:50:40;;;;;;;4.63;1.90;;;;;;;3.03;95.69;99133.31;4969687;28;20117;-58